sensor_id;sensor_type;location;lat;lon;timestamp;temperature;humidity
22321;DHT22;11328;53.928;18.522;2023-04-01T00:00:25;9.60;99.90
22321;DHT22;11328;53.928;18.522;2023-04-01T00:02:52;9.50;99.90
22321;DHT22;11328;53.928;18.522;2023-04-01T00:05:19;9.40;99.90
22321;DHT22;11328;53.928;18.522;2023-04-01T00:07:46;9.40;99.90
22321;DHT22;11328;53.928;18.522;2023-04-01T00:10:14;9.30;99.90
22321;DHT22;11328;53.928;18.522;2023-04-01T00:12:41;9.20;99.90
22321;DHT22;11328;53.928;18.522;2023-04-01T00:15:10;9.20;99.90
22321;DHT22;11328;53.928;18.522;2023-04-01T00:17:38;9.20;99.90
22321;DHT22;11328;53.928;18.522;2023-04-01T00:20:06;9.20;99.90
22321;DHT22;11328;53.928;18.522;2023-04-01T00:22:34;9.10;99.90
22321;DHT22;11328;53.928;18.522;2023-04-01T00:25:02;9.20;99.90
22321;DHT22;11328;53.928;18.522;2023-04-01T00:27:29;9.10;99.90
22321;DHT22;11328;53.928;18.522;2023-04-01T00:29:56;9.10;99.90
22321;DHT22;11328;53.928;18.522;2023-04-01T00:32:23;9.00;99.90
22321;DHT22;11328;53.928;18.522;2023-04-01T00:34:51;9.00;99.90
22321;DHT22;11328;53.928;18.522;2023-04-01T00:37:19;8.90;99.90
22321;DHT22;11328;53.928;18.522;2023-04-01T00:39:47;8.90;99.90
22321;DHT22;11328;53.928;18.522;2023-04-01T00:42:14;8.90;99.90
22321;DHT22;11328;53.928;18.522;2023-04-01T00:44:42;8.80;99.90
22321;DHT22;11328;53.928;18.522;2023-04-01T00:47:09;8.80;99.90
22321;DHT22;11328;53.928;18.522;2023-04-01T00:49:39;8.80;99.90
22321;DHT22;11328;53.928;18.522;2023-04-01T00:52:11;8.80;99.90
22321;DHT22;11328;53.928;18.522;2023-04-01T00:54:42;8.80;99.90
22321;DHT22;11328;53.928;18.522;2023-04-01T01:00:12;8.80;99.90
22321;DHT22;11328;53.928;18.522;2023-04-01T01:02:43;8.80;99.90
22321;DHT22;11328;53.928;18.522;2023-04-01T01:05:13;8.80;99.90
22321;DHT22;11328;53.928;18.522;2023-04-01T01:10:39;8.70;99.90
22321;DHT22;11328;53.928;18.522;2023-04-01T01:16:12;8.40;99.90
22321;DHT22;11328;53.928;18.522;2023-04-01T01:22:20;8.20;99.90
22321;DHT22;11328;53.928;18.522;2023-04-01T01:27:09;8.20;99.90
22321;DHT22;11328;53.928;18.522;2023-04-01T01:38:00;8.10;99.90
22321;DHT22;11328;53.928;18.522;2023-04-01T01:40:31;8.10;99.90
22321;DHT22;11328;53.928;18.522;2023-04-01T01:43:05;7.90;99.90
22321;DHT22;11328;53.928;18.522;2023-04-01T01:45:40;7.90;99.90
22321;DHT22;11328;53.928;18.522;2023-04-01T01:48:12;7.90;99.90
22321;DHT22;11328;53.928;18.522;2023-04-01T01:50:40;7.80;99.90
22321;DHT22;11328;53.928;18.522;2023-04-01T01:53:13;7.80;99.90
22321;DHT22;11328;53.928;18.522;2023-04-01T01:55:43;7.80;99.90
22321;DHT22;11328;53.928;18.522;2023-04-01T01:58:32;7.80;99.90
22321;DHT22;11328;53.928;18.522;2023-04-01T02:01:10;7.90;99.90
22321;DHT22;11328;53.928;18.522;2023-04-01T02:03:42;7.80;99.90
22321;DHT22;11328;53.928;18.522;2023-04-01T02:06:15;7.70;99.90
22321;DHT22;11328;53.928;18.522;2023-04-01T02:08:52;7.50;99.90
22321;DHT22;11328;53.928;18.522;2023-04-01T02:11:39;7.50;99.90
22321;DHT22;11328;53.928;18.522;2023-04-01T02:14:11;7.40;99.90
22321;DHT22;11328;53.928;18.522;2023-04-01T02:19:22;7.30;99.90
22321;DHT22;11328;53.928;18.522;2023-04-01T02:21:57;7.20;99.90
22321;DHT22;11328;53.928;18.522;2023-04-01T02:24:30;7.30;99.90
22321;DHT22;11328;53.928;18.522;2023-04-01T02:26:58;7.20;99.90
22321;DHT22;11328;53.928;18.522;2023-04-01T02:29:26;7.20;99.90
22321;DHT22;11328;53.928;18.522;2023-04-01T02:31:54;7.20;99.90
22321;DHT22;11328;53.928;18.522;2023-04-01T02:34:23;7.10;99.90
22321;DHT22;11328;53.928;18.522;2023-04-01T02:36:51;7.20;99.90
22321;DHT22;11328;53.928;18.522;2023-04-01T02:39:18;7.30;99.90
22321;DHT22;11328;53.928;18.522;2023-04-01T02:41:46;7.30;99.90
22321;DHT22;11328;53.928;18.522;2023-04-01T02:44:14;7.30;99.90
22321;DHT22;11328;53.928;18.522;2023-04-01T02:46:42;7.30;99.90
22321;DHT22;11328;53.928;18.522;2023-04-01T02:49:10;7.30;99.90
22321;DHT22;11328;53.928;18.522;2023-04-01T02:51:37;7.40;99.90
22321;DHT22;11328;53.928;18.522;2023-04-01T02:54:04;7.30;99.90
22321;DHT22;11328;53.928;18.522;2023-04-01T02:56:31;7.40;99.90
22321;DHT22;11328;53.928;18.522;2023-04-01T02:58:58;7.30;99.90
22321;DHT22;11328;53.928;18.522;2023-04-01T03:01:25;7.20;99.90
22321;DHT22;11328;53.928;18.522;2023-04-01T03:03:52;7.10;99.90
22321;DHT22;11328;53.928;18.522;2023-04-01T03:06:19;7.00;99.90
22321;DHT22;11328;53.928;18.522;2023-04-01T03:08:46;7.10;99.90
22321;DHT22;11328;53.928;18.522;2023-04-01T03:11:13;7.10;99.90
22321;DHT22;11328;53.928;18.522;2023-04-01T03:13:40;7.10;99.90
22321;DHT22;11328;53.928;18.522;2023-04-01T03:16:07;7.00;99.90
22321;DHT22;11328;53.928;18.522;2023-04-01T03:18:34;7.00;99.90
22321;DHT22;11328;53.928;18.522;2023-04-01T03:21:22;7.00;99.90
22321;DHT22;11328;53.928;18.522;2023-04-01T03:23:51;7.10;99.90
22321;DHT22;11328;53.928;18.522;2023-04-01T03:26:18;7.10;99.90
22321;DHT22;11328;53.928;18.522;2023-04-01T03:28:46;7.20;99.90
22321;DHT22;11328;53.928;18.522;2023-04-01T03:31:13;7.10;99.90
22321;DHT22;11328;53.928;18.522;2023-04-01T03:33:41;7.00;99.90
22321;DHT22;11328;53.928;18.522;2023-04-01T03:36:08;7.00;99.90
22321;DHT22;11328;53.928;18.522;2023-04-01T03:38:36;7.00;99.90
22321;DHT22;11328;53.928;18.522;2023-04-01T03:41:03;7.00;99.90
22321;DHT22;11328;53.928;18.522;2023-04-01T03:43:30;7.00;99.90
22321;DHT22;11328;53.928;18.522;2023-04-01T03:45:56;7.00;99.90
22321;DHT22;11328;53.928;18.522;2023-04-01T03:48:25;6.80;99.90
22321;DHT22;11328;53.928;18.522;2023-04-01T03:50:52;6.80;99.90
22321;DHT22;11328;53.928;18.522;2023-04-01T03:53:19;6.80;99.90
22321;DHT22;11328;53.928;18.522;2023-04-01T03:55:46;6.80;99.90
22321;DHT22;11328;53.928;18.522;2023-04-01T03:58:14;6.80;99.90
22321;DHT22;11328;53.928;18.522;2023-04-01T04:00:41;6.80;99.90
22321;DHT22;11328;53.928;18.522;2023-04-01T04:03:08;6.80;99.90
22321;DHT22;11328;53.928;18.522;2023-04-01T04:05:35;6.80;99.90
22321;DHT22;11328;53.928;18.522;2023-04-01T04:08:02;6.90;99.90
22321;DHT22;11328;53.928;18.522;2023-04-01T04:10:29;6.80;99.90
22321;DHT22;11328;53.928;18.522;2023-04-01T04:12:56;6.80;99.90
22321;DHT22;11328;53.928;18.522;2023-04-01T04:15:23;6.80;99.90
22321;DHT22;11328;53.928;18.522;2023-04-01T04:17:50;6.90;99.90
22321;DHT22;11328;53.928;18.522;2023-04-01T04:20:17;6.80;99.90
22321;DHT22;11328;53.928;18.522;2023-04-01T04:22:44;6.80;99.90
22321;DHT22;11328;53.928;18.522;2023-04-01T04:25:11;7.00;99.90
22321;DHT22;11328;53.928;18.522;2023-04-01T04:27:38;7.00;99.90
22321;DHT22;11328;53.928;18.522;2023-04-01T04:30:07;7.10;99.90
22321;DHT22;11328;53.928;18.522;2023-04-01T04:32:34;7.10;99.90
22321;DHT22;11328;53.928;18.522;2023-04-01T04:35:05;7.10;99.90
22321;DHT22;11328;53.928;18.522;2023-04-01T04:37:33;7.10;99.90
22321;DHT22;11328;53.928;18.522;2023-04-01T04:39:59;7.00;99.90
22321;DHT22;11328;53.928;18.522;2023-04-01T04:42:27;6.90;99.90
22321;DHT22;11328;53.928;18.522;2023-04-01T04:44:54;6.90;99.90
22321;DHT22;11328;53.928;18.522;2023-04-01T04:47:20;6.90;99.90
22321;DHT22;11328;53.928;18.522;2023-04-01T04:49:48;6.80;99.90
22321;DHT22;11328;53.928;18.522;2023-04-01T04:52:15;6.80;99.90
22321;DHT22;11328;53.928;18.522;2023-04-01T04:54:42;6.90;99.90
22321;DHT22;11328;53.928;18.522;2023-04-01T04:57:09;6.80;99.90
22321;DHT22;11328;53.928;18.522;2023-04-01T04:59:35;6.70;99.90
22321;DHT22;11328;53.928;18.522;2023-04-01T05:02:03;6.80;99.90
22321;DHT22;11328;53.928;18.522;2023-04-01T05:04:34;6.70;99.90
22321;DHT22;11328;53.928;18.522;2023-04-01T05:07:03;6.80;99.90
22321;DHT22;11328;53.928;18.522;2023-04-01T05:09:30;6.80;99.90
22321;DHT22;11328;53.928;18.522;2023-04-01T05:11:58;6.80;99.90
22321;DHT22;11328;53.928;18.522;2023-04-01T05:14:24;6.80;99.90
22321;DHT22;11328;53.928;18.522;2023-04-01T05:16:51;6.80;99.90
22321;DHT22;11328;53.928;18.522;2023-04-01T05:19:18;6.80;99.90
22321;DHT22;11328;53.928;18.522;2023-04-01T05:21:45;6.80;99.90
22321;DHT22;11328;53.928;18.522;2023-04-01T05:24:12;6.80;99.90
22321;DHT22;11328;53.928;18.522;2023-04-01T05:26:39;6.70;99.90
22321;DHT22;11328;53.928;18.522;2023-04-01T05:29:06;6.70;99.90
22321;DHT22;11328;53.928;18.522;2023-04-01T05:31:33;6.80;99.90
22321;DHT22;11328;53.928;18.522;2023-04-01T05:34:00;6.70;99.90
22321;DHT22;11328;53.928;18.522;2023-04-01T05:36:28;6.70;99.90
22321;DHT22;11328;53.928;18.522;2023-04-01T05:38:55;6.80;99.90
22321;DHT22;11328;53.928;18.522;2023-04-01T05:41:22;6.80;99.90
22321;DHT22;11328;53.928;18.522;2023-04-01T05:43:49;6.90;99.90
22321;DHT22;11328;53.928;18.522;2023-04-01T05:46:16;7.00;99.90
22321;DHT22;11328;53.928;18.522;2023-04-01T05:48:43;7.00;99.90
22321;DHT22;11328;53.928;18.522;2023-04-01T05:51:14;7.10;99.90
22321;DHT22;11328;53.928;18.522;2023-04-01T05:53:42;7.10;99.90
22321;DHT22;11328;53.928;18.522;2023-04-01T05:56:09;7.10;99.90
22321;DHT22;11328;53.928;18.522;2023-04-01T05:58:37;7.00;99.90
22321;DHT22;11328;53.928;18.522;2023-04-01T06:01:10;6.90;99.90
22321;DHT22;11328;53.928;18.522;2023-04-01T06:03:42;6.90;99.90
22321;DHT22;11328;53.928;18.522;2023-04-01T06:06:14;6.70;99.90
22321;DHT22;11328;53.928;18.522;2023-04-01T06:08:43;6.70;99.90
22321;DHT22;11328;53.928;18.522;2023-04-01T06:11:13;6.70;99.90
22321;DHT22;11328;53.928;18.522;2023-04-01T06:22:48;6.60;99.90
22321;DHT22;11328;53.928;18.522;2023-04-01T06:31:25;6.80;99.90
22321;DHT22;11328;53.928;18.522;2023-04-01T06:34:14;6.70;99.90
22321;DHT22;11328;53.928;18.522;2023-04-01T06:37:15;6.70;99.90
22321;DHT22;11328;53.928;18.522;2023-04-01T06:43:59;6.90;99.90
22321;DHT22;11328;53.928;18.522;2023-04-01T06:47:10;7.00;99.90
22321;DHT22;11328;53.928;18.522;2023-04-01T06:52:58;6.90;99.90
22321;DHT22;11328;53.928;18.522;2023-04-01T06:55:47;6.90;99.90
22321;DHT22;11328;53.928;18.522;2023-04-01T06:58:43;6.90;99.90
22321;DHT22;11328;53.928;18.522;2023-04-01T07:01:16;7.00;99.90
22321;DHT22;11328;53.928;18.522;2023-04-01T07:04:53;7.00;99.90
22321;DHT22;11328;53.928;18.522;2023-04-01T07:07:05;7.20;99.90
22321;DHT22;11328;53.928;18.522;2023-04-01T07:09:45;7.20;99.90
22321;DHT22;11328;53.928;18.522;2023-04-01T07:14:52;7.20;99.90
22321;DHT22;11328;53.928;18.522;2023-04-01T07:17:25;7.10;99.90
22321;DHT22;11328;53.928;18.522;2023-04-01T07:20:11;7.10;99.90
22321;DHT22;11328;53.928;18.522;2023-04-01T07:22:52;7.10;99.90
22321;DHT22;11328;53.928;18.522;2023-04-01T07:28:03;7.00;99.90
22321;DHT22;11328;53.928;18.522;2023-04-01T07:33:39;7.10;99.90
22321;DHT22;11328;53.928;18.522;2023-04-01T07:36:29;7.10;99.90
22321;DHT22;11328;53.928;18.522;2023-04-01T07:43:21;6.90;99.90
22321;DHT22;11328;53.928;18.522;2023-04-01T07:50:55;6.50;99.90
22321;DHT22;11328;53.928;18.522;2023-04-01T07:53:50;6.60;99.90
22321;DHT22;11328;53.928;18.522;2023-04-01T08:14:08;6.40;99.90
22321;DHT22;11328;53.928;18.522;2023-04-01T08:16:58;6.50;99.90
22321;DHT22;11328;53.928;18.522;2023-04-01T08:22:07;6.60;99.90
22321;DHT22;11328;53.928;18.522;2023-04-01T08:24:48;6.70;99.90
22321;DHT22;11328;53.928;18.522;2023-04-01T08:30:04;6.80;99.90
22321;DHT22;11328;53.928;18.522;2023-04-01T08:32:47;6.70;99.90
22321;DHT22;11328;53.928;18.522;2023-04-01T08:35:51;6.80;99.90
22321;DHT22;11328;53.928;18.522;2023-04-01T08:38:36;6.90;99.90
22321;DHT22;11328;53.928;18.522;2023-04-01T08:41:37;7.10;99.90
22321;DHT22;11328;53.928;18.522;2023-04-01T08:47:46;6.80;99.90
22321;DHT22;11328;53.928;18.522;2023-04-01T08:56:20;6.80;99.90
22321;DHT22;11328;53.928;18.522;2023-04-01T09:02:12;6.80;99.90
22321;DHT22;11328;53.928;18.522;2023-04-01T09:05:17;6.60;99.90
22321;DHT22;11328;53.928;18.522;2023-04-01T09:11:30;6.90;99.90
22321;DHT22;11328;53.928;18.522;2023-04-01T09:18:02;6.90;99.90
22321;DHT22;11328;53.928;18.522;2023-04-01T09:20:54;6.80;99.90
22321;DHT22;11328;53.928;18.522;2023-04-01T09:33:17;6.80;99.90
22321;DHT22;11328;53.928;18.522;2023-04-01T09:36:28;6.80;99.90
22321;DHT22;11328;53.928;18.522;2023-04-01T09:39:37;6.80;99.90
22321;DHT22;11328;53.928;18.522;2023-04-01T09:55:00;6.70;99.90
22321;DHT22;11328;53.928;18.522;2023-04-01T10:22:08;6.60;99.90
22321;DHT22;11328;53.928;18.522;2023-04-01T10:33:50;6.80;99.90
22321;DHT22;11328;53.928;18.522;2023-04-01T10:36:43;6.90;99.90
22321;DHT22;11328;53.928;18.522;2023-04-01T10:39:34;6.70;99.90
22321;DHT22;11328;53.928;18.522;2023-04-01T10:48:22;6.70;99.90
22321;DHT22;11328;53.928;18.522;2023-04-01T10:54:45;6.60;99.90
22321;DHT22;11328;53.928;18.522;2023-04-01T11:27:49;6.30;99.90
22321;DHT22;11328;53.928;18.522;2023-04-01T11:33:34;6.30;99.90
22321;DHT22;11328;53.928;18.522;2023-04-01T11:39:31;6.20;99.90
22321;DHT22;11328;53.928;18.522;2023-04-01T11:45:43;6.40;99.90
22321;DHT22;11328;53.928;18.522;2023-04-01T11:54:05;6.20;99.90
22321;DHT22;11328;53.928;18.522;2023-04-01T12:09:25;6.10;99.90
22321;DHT22;11328;53.928;18.522;2023-04-01T12:12:10;6.10;99.90
22321;DHT22;11328;53.928;18.522;2023-04-01T12:17:45;6.10;99.90
22321;DHT22;11328;53.928;18.522;2023-04-01T12:23:58;6.30;99.90
22321;DHT22;11328;53.928;18.522;2023-04-01T12:27:08;6.30;99.90
22321;DHT22;11328;53.928;18.522;2023-04-01T12:35:18;6.30;99.90
22321;DHT22;11328;53.928;18.522;2023-04-01T12:41:11;6.20;99.90
22321;DHT22;11328;53.928;18.522;2023-04-01T13:13:46;6.30;99.90
22321;DHT22;11328;53.928;18.522;2023-04-01T13:16:29;6.40;99.90
22321;DHT22;11328;53.928;18.522;2023-04-01T13:25:13;6.40;99.90
22321;DHT22;11328;53.928;18.522;2023-04-01T13:27:58;6.40;99.90
22321;DHT22;11328;53.928;18.522;2023-04-01T13:30:43;6.40;99.90
22321;DHT22;11328;53.928;18.522;2023-04-01T13:36:56;6.00;99.90
22321;DHT22;11328;53.928;18.522;2023-04-01T13:39:10;6.00;99.90
22321;DHT22;11328;53.928;18.522;2023-04-01T13:44:52;5.90;99.90
22321;DHT22;11328;53.928;18.522;2023-04-01T13:50:45;5.60;99.90
22321;DHT22;11328;53.928;18.522;2023-04-01T14:02:54;5.60;99.90
22321;DHT22;11328;53.928;18.522;2023-04-01T14:05:40;5.50;99.90
22321;DHT22;11328;53.928;18.522;2023-04-01T14:08:47;5.70;99.90
22321;DHT22;11328;53.928;18.522;2023-04-01T14:11:36;5.60;99.90
22321;DHT22;11328;53.928;18.522;2023-04-01T14:14:46;5.50;99.90
22321;DHT22;11328;53.928;18.522;2023-04-01T14:20:39;5.40;99.90
22321;DHT22;11328;53.928;18.522;2023-04-01T14:26:35;5.60;99.90
22321;DHT22;11328;53.928;18.522;2023-04-01T14:40:27;5.70;99.90
22321;DHT22;11328;53.928;18.522;2023-04-01T14:52:10;5.50;99.90
22321;DHT22;11328;53.928;18.522;2023-04-01T14:54:44;5.60;99.90
22321;DHT22;11328;53.928;18.522;2023-04-01T14:57:20;5.60;99.90
22321;DHT22;11328;53.928;18.522;2023-04-01T15:00:00;5.60;99.90
22321;DHT22;11328;53.928;18.522;2023-04-01T15:09:39;5.50;99.90
22321;DHT22;11328;53.928;18.522;2023-04-01T15:12:26;5.50;99.90
22321;DHT22;11328;53.928;18.522;2023-04-01T15:15:45;5.60;99.90
22321;DHT22;11328;53.928;18.522;2023-04-01T15:18:46;5.50;99.90
22321;DHT22;11328;53.928;18.522;2023-04-01T15:21:59;5.30;99.90
22321;DHT22;11328;53.928;18.522;2023-04-01T15:25:43;5.30;99.90
22321;DHT22;11328;53.928;18.522;2023-04-01T15:27:59;5.20;99.90
22321;DHT22;11328;53.928;18.522;2023-04-01T15:31:12;5.30;99.90
22321;DHT22;11328;53.928;18.522;2023-04-01T15:34:03;5.30;99.90
22321;DHT22;11328;53.928;18.522;2023-04-01T15:36:57;5.10;99.90
22321;DHT22;11328;53.928;18.522;2023-04-01T15:39:58;5.10;99.90
22321;DHT22;11328;53.928;18.522;2023-04-01T15:48:53;5.10;99.90
22321;DHT22;11328;53.928;18.522;2023-04-01T16:09:17;5.10;99.90
22321;DHT22;11328;53.928;18.522;2023-04-01T16:12:27;5.10;99.90
22321;DHT22;11328;53.928;18.522;2023-04-01T16:18:34;4.90;99.90
22321;DHT22;11328;53.928;18.522;2023-04-01T16:28:03;4.90;99.90
22321;DHT22;11328;53.928;18.522;2023-04-01T16:36:45;4.90;99.90
22321;DHT22;11328;53.928;18.522;2023-04-01T16:42:34;4.90;99.90
22321;DHT22;11328;53.928;18.522;2023-04-01T16:45:24;4.90;99.90
22321;DHT22;11328;53.928;18.522;2023-04-01T16:48:14;5.00;99.90
22321;DHT22;11328;53.928;18.522;2023-04-01T16:51:00;5.00;99.90
22321;DHT22;11328;53.928;18.522;2023-04-01T16:53:45;5.10;99.90
22321;DHT22;11328;53.928;18.522;2023-04-01T16:56:27;5.00;99.90
22321;DHT22;11328;53.928;18.522;2023-04-01T17:04:26;4.80;99.90
22321;DHT22;11328;53.928;18.522;2023-04-01T17:10:10;4.90;99.90
22321;DHT22;11328;53.928;18.522;2023-04-01T17:24:49;4.60;99.90
22321;DHT22;11328;53.928;18.522;2023-04-01T17:27:51;4.60;99.90
22321;DHT22;11328;53.928;18.522;2023-04-01T17:30:40;4.60;99.90
22321;DHT22;11328;53.928;18.522;2023-04-01T17:39:54;4.70;99.90
22321;DHT22;11328;53.928;18.522;2023-04-01T17:42:48;4.60;99.90
22321;DHT22;11328;53.928;18.522;2023-04-01T17:45:44;4.60;99.90
22321;DHT22;11328;53.928;18.522;2023-04-01T17:57:55;4.70;99.90
22321;DHT22;11328;53.928;18.522;2023-04-01T18:00:15;4.60;99.90
22321;DHT22;11328;53.928;18.522;2023-04-01T18:09:22;4.60;99.90
22321;DHT22;11328;53.928;18.522;2023-04-01T18:15:13;4.70;99.90
22321;DHT22;11328;53.928;18.522;2023-04-01T18:23:47;4.50;99.90
22321;DHT22;11328;53.928;18.522;2023-04-01T18:26:32;4.50;99.90
22321;DHT22;11328;53.928;18.522;2023-04-01T18:31:48;4.50;99.90
22321;DHT22;11328;53.928;18.522;2023-04-01T18:34:39;4.50;99.90
22321;DHT22;11328;53.928;18.522;2023-04-01T18:37:19;4.50;99.90
22321;DHT22;11328;53.928;18.522;2023-04-01T18:43:30;4.40;99.90
22321;DHT22;11328;53.928;18.522;2023-04-01T18:52:31;4.60;99.90
22321;DHT22;11328;53.928;18.522;2023-04-01T18:57:52;4.50;99.90
22321;DHT22;11328;53.928;18.522;2023-04-01T19:00:43;4.60;99.90
22321;DHT22;11328;53.928;18.522;2023-04-01T19:03:41;4.60;99.90
22321;DHT22;11328;53.928;18.522;2023-04-01T19:06:35;4.60;99.90
22321;DHT22;11328;53.928;18.522;2023-04-01T19:12:41;4.60;99.90
22321;DHT22;11328;53.928;18.522;2023-04-01T19:19:29;4.60;99.90
22321;DHT22;11328;53.928;18.522;2023-04-01T19:21:56;4.60;99.90
22321;DHT22;11328;53.928;18.522;2023-04-01T19:27:32;4.80;99.90
22321;DHT22;11328;53.928;18.522;2023-04-01T19:30:47;4.70;99.90
22321;DHT22;11328;53.928;18.522;2023-04-01T19:33:26;4.60;99.90
22321;DHT22;11328;53.928;18.522;2023-04-01T19:39:36;4.60;99.90
22321;DHT22;11328;53.928;18.522;2023-04-01T19:42:55;4.60;99.90
22321;DHT22;11328;53.928;18.522;2023-04-01T19:45:45;4.60;99.90
22321;DHT22;11328;53.928;18.522;2023-04-01T19:52:00;4.70;99.90
22321;DHT22;11328;53.928;18.522;2023-04-01T20:06:41;4.70;99.90
22321;DHT22;11328;53.928;18.522;2023-04-01T20:13:03;4.60;99.90
22321;DHT22;11328;53.928;18.522;2023-04-01T20:15:39;4.70;99.90
22321;DHT22;11328;53.928;18.522;2023-04-01T20:21:30;4.60;99.90
22321;DHT22;11328;53.928;18.522;2023-04-01T20:24:19;4.60;99.90
22321;DHT22;11328;53.928;18.522;2023-04-01T20:36:30;4.60;99.90
22321;DHT22;11328;53.928;18.522;2023-04-01T20:39:31;4.60;99.90
22321;DHT22;11328;53.928;18.522;2023-04-01T20:42:34;4.50;99.90
22321;DHT22;11328;53.928;18.522;2023-04-01T20:50:29;4.60;99.90
22321;DHT22;11328;53.928;18.522;2023-04-01T20:56:28;4.50;99.90
22321;DHT22;11328;53.928;18.522;2023-04-01T20:59:16;4.60;99.90
22321;DHT22;11328;53.928;18.522;2023-04-01T21:02:11;4.50;99.90
22321;DHT22;11328;53.928;18.522;2023-04-01T21:07:58;4.50;99.90
22321;DHT22;11328;53.928;18.522;2023-04-01T21:11:01;4.50;99.90
22321;DHT22;11328;53.928;18.522;2023-04-01T21:16:44;4.50;99.90
22321;DHT22;11328;53.928;18.522;2023-04-01T21:25:09;4.50;99.90
22321;DHT22;11328;53.928;18.522;2023-04-01T21:34:42;4.60;99.90
22321;DHT22;11328;53.928;18.522;2023-04-01T22:07:37;4.40;99.90
22321;DHT22;11328;53.928;18.522;2023-04-01T22:10:20;4.30;99.90
22321;DHT22;11328;53.928;18.522;2023-04-01T22:13:01;4.30;99.90
22321;DHT22;11328;53.928;18.522;2023-04-01T22:15:54;4.40;99.90
22321;DHT22;11328;53.928;18.522;2023-04-01T22:18:33;4.30;99.90
22321;DHT22;11328;53.928;18.522;2023-04-01T22:24:24;4.30;99.90
22321;DHT22;11328;53.928;18.522;2023-04-01T22:27:37;4.40;99.90
22321;DHT22;11328;53.928;18.522;2023-04-01T22:30:29;4.20;99.90
22321;DHT22;11328;53.928;18.522;2023-04-01T22:39:49;4.30;99.90
22321;DHT22;11328;53.928;18.522;2023-04-01T22:42:43;4.30;99.90
22321;DHT22;11328;53.928;18.522;2023-04-01T22:48:19;4.40;99.90
22321;DHT22;11328;53.928;18.522;2023-04-01T22:51:05;4.40;99.90
22321;DHT22;11328;53.928;18.522;2023-04-01T22:57:04;4.60;99.90
22321;DHT22;11328;53.928;18.522;2023-04-01T22:59:42;4.60;99.90
22321;DHT22;11328;53.928;18.522;2023-04-01T23:02:23;4.50;99.90
22321;DHT22;11328;53.928;18.522;2023-04-01T23:04:58;4.50;99.90
22321;DHT22;11328;53.928;18.522;2023-04-01T23:07:46;4.40;99.90
22321;DHT22;11328;53.928;18.522;2023-04-01T23:13:16;4.50;99.90
22321;DHT22;11328;53.928;18.522;2023-04-01T23:15:51;4.50;99.90
22321;DHT22;11328;53.928;18.522;2023-04-01T23:18:35;4.40;99.90
22321;DHT22;11328;53.928;18.522;2023-04-01T23:24:56;4.40;99.90
22321;DHT22;11328;53.928;18.522;2023-04-01T23:27:37;4.40;99.90
22321;DHT22;11328;53.928;18.522;2023-04-01T23:35:51;4.20;99.90
22321;DHT22;11328;53.928;18.522;2023-04-01T23:38:24;4.20;99.90
22321;DHT22;11328;53.928;18.522;2023-04-01T23:40:54;4.20;99.90
22321;DHT22;11328;53.928;18.522;2023-04-01T23:43:28;4.20;99.90
22321;DHT22;11328;53.928;18.522;2023-04-01T23:46:01;4.20;99.90
22321;DHT22;11328;53.928;18.522;2023-04-01T23:48:36;4.20;99.90
22321;DHT22;11328;53.928;18.522;2023-04-01T23:54:15;4.10;99.90
22321;DHT22;11328;53.928;18.522;2023-04-01T23:56:48;4.10;99.90
22321;DHT22;11328;53.928;18.522;2023-04-01T23:59:23;4.10;99.90
